sensor_id;sensor_type;location;lat;lon;timestamp;pressure;altitude;pressure_sealevel;temperature
28803;BMP280;15949;55.656;37.422;2022-10-26T00:00:12;99834.53;;;-0.09
28803;BMP280;15949;55.656;37.422;2022-10-26T00:05:18;99846.06;;;-0.10
28803;BMP280;15949;55.656;37.422;2022-10-26T00:10:24;99830.19;;;-0.17
28803;BMP280;15949;55.656;37.422;2022-10-26T00:15:31;99840.78;;;-0.13
28803;BMP280;15949;55.656;37.422;2022-10-26T00:20:36;99839.16;;;-0.18
28803;BMP280;15949;55.656;37.422;2022-10-26T00:25:43;99830.28;;;-0.13
28803;BMP280;15949;55.656;37.422;2022-10-26T00:30:48;99832.59;;;-0.12
28803;BMP280;15949;55.656;37.422;2022-10-26T00:35:54;99825.31;;;-0.02
28803;BMP280;15949;55.656;37.422;2022-10-26T00:41:00;99826.56;;;0.04
28803;BMP280;15949;55.656;37.422;2022-10-26T00:46:10;99822.69;;;0.13
28803;BMP280;15949;55.656;37.422;2022-10-26T00:51:24;99812.03;;;0.22
28803;BMP280;15949;55.656;37.422;2022-10-26T00:56:31;99833.22;;;0.33
28803;BMP280;15949;55.656;37.422;2022-10-26T01:01:40;99829.34;;;0.43
28803;BMP280;15949;55.656;37.422;2022-10-26T01:06:47;99831.06;;;0.54
28803;BMP280;15949;55.656;37.422;2022-10-26T01:11:54;99818.63;;;0.67
28803;BMP280;15949;55.656;37.422;2022-10-26T01:22:24;99818.50;;;0.80
28803;BMP280;15949;55.656;37.422;2022-10-26T01:27:40;99822.53;;;0.77
28803;BMP280;15949;55.656;37.422;2022-10-26T01:32:50;99825.22;;;0.81
28803;BMP280;15949;55.656;37.422;2022-10-26T01:38:08;99816.19;;;0.78
28803;BMP280;15949;55.656;37.422;2022-10-26T01:43:16;99813.81;;;0.89
28803;BMP280;15949;55.656;37.422;2022-10-26T01:48:23;99813.09;;;0.92
28803;BMP280;15949;55.656;37.422;2022-10-26T01:53:30;99806.34;;;0.91
28803;BMP280;15949;55.656;37.422;2022-10-26T02:04:19;99815.88;;;0.80
28803;BMP280;15949;55.656;37.422;2022-10-26T02:10:17;99818.63;;;0.67
28803;BMP280;15949;55.656;37.422;2022-10-26T02:20:59;99815.13;;;0.44
28803;BMP280;15949;55.656;37.422;2022-10-26T02:26:08;99823.00;;;0.28
28803;BMP280;15949;55.656;37.422;2022-10-26T02:31:15;99829.63;;;0.22
28803;BMP280;15949;55.656;37.422;2022-10-26T02:36:28;99828.50;;;0.07
28803;BMP280;15949;55.656;37.422;2022-10-26T02:41:35;99825.72;;;-0.00
28803;BMP280;15949;55.656;37.422;2022-10-26T02:46:42;99823.72;;;-0.07
28803;BMP280;15949;55.656;37.422;2022-10-26T02:52:10;99823.63;;;-0.11
28803;BMP280;15949;55.656;37.422;2022-10-26T02:57:21;99816.03;;;-0.16
28803;BMP280;15949;55.656;37.422;2022-10-26T03:02:28;99813.16;;;-0.11
28803;BMP280;15949;55.656;37.422;2022-10-26T03:07:34;99818.47;;;-0.07
28803;BMP280;15949;55.656;37.422;2022-10-26T03:12:40;99825.13;;;-0.10
28803;BMP280;15949;55.656;37.422;2022-10-26T03:17:45;99823.63;;;-0.11
28803;BMP280;15949;55.656;37.422;2022-10-26T03:22:51;99809.03;;;-0.12
28803;BMP280;15949;55.656;37.422;2022-10-26T03:27:58;99807.81;;;-0.14
28803;BMP280;15949;55.656;37.422;2022-10-26T03:33:04;99815.00;;;-0.11
28803;BMP280;15949;55.656;37.422;2022-10-26T03:38:10;99812.88;;;-0.05
28803;BMP280;15949;55.656;37.422;2022-10-26T03:43:15;99811.81;;;-0.04
28803;BMP280;15949;55.656;37.422;2022-10-26T03:48:21;99804.78;;;-0.00
28803;BMP280;15949;55.656;37.422;2022-10-26T03:53:27;99800.81;;;0.06
28803;BMP280;15949;55.656;37.422;2022-10-26T03:58:32;99804.00;;;0.15
28803;BMP280;15949;55.656;37.422;2022-10-26T04:03:38;99804.72;;;0.31
28803;BMP280;15949;55.656;37.422;2022-10-26T04:08:43;99807.16;;;0.40
28803;BMP280;15949;55.656;37.422;2022-10-26T04:13:49;99812.06;;;0.42
28803;BMP280;15949;55.656;37.422;2022-10-26T04:18:54;99813.00;;;0.49
28803;BMP280;15949;55.656;37.422;2022-10-26T04:24:01;99809.50;;;0.61
28803;BMP280;15949;55.656;37.422;2022-10-26T04:29:06;99827.50;;;0.63
28803;BMP280;15949;55.656;37.422;2022-10-26T04:34:13;99836.47;;;0.62
28803;BMP280;15949;55.656;37.422;2022-10-26T04:39:19;99834.84;;;0.57
28803;BMP280;15949;55.656;37.422;2022-10-26T04:44:24;99841.28;;;0.75
28803;BMP280;15949;55.656;37.422;2022-10-26T04:49:30;99837.25;;;0.82
28803;BMP280;15949;55.656;37.422;2022-10-26T04:54:36;99843.81;;;0.91
28803;BMP280;15949;55.656;37.422;2022-10-26T04:59:41;99848.31;;;0.91
28803;BMP280;15949;55.656;37.422;2022-10-26T05:04:47;99845.94;;;0.86
28803;BMP280;15949;55.656;37.422;2022-10-26T05:09:53;99841.53;;;0.90
28803;BMP280;15949;55.656;37.422;2022-10-26T05:14:58;99846.97;;;1.01
28803;BMP280;15949;55.656;37.422;2022-10-26T05:20:04;99837.97;;;0.98
28803;BMP280;15949;55.656;37.422;2022-10-26T05:25:10;99841.94;;;1.11
28803;BMP280;15949;55.656;37.422;2022-10-26T05:30:16;99842.91;;;1.23
28803;BMP280;15949;55.656;37.422;2022-10-26T05:35:22;99835.59;;;1.32
28803;BMP280;15949;55.656;37.422;2022-10-26T05:40:27;99837.53;;;1.35
28803;BMP280;15949;55.656;37.422;2022-10-26T05:45:33;99841.09;;;1.46
28803;BMP280;15949;55.656;37.422;2022-10-26T05:50:39;99837.19;;;1.59
28803;BMP280;15949;55.656;37.422;2022-10-26T05:55:45;99830.94;;;1.68
28803;BMP280;15949;55.656;37.422;2022-10-26T06:05:59;99836.03;;;1.80
28803;BMP280;15949;55.656;37.422;2022-10-26T06:11:05;99842.00;;;1.77
28803;BMP280;15949;55.656;37.422;2022-10-26T06:16:33;99851.63;;;1.92
28803;BMP280;15949;55.656;37.422;2022-10-26T06:32:37;99840.41;;;2.22
28803;BMP280;15949;55.656;37.422;2022-10-26T06:37:44;99841.66;;;2.28
28803;BMP280;15949;55.656;37.422;2022-10-26T06:42:50;99833.47;;;2.37
28803;BMP280;15949;55.656;37.422;2022-10-26T06:48:01;99840.03;;;2.46
28803;BMP280;15949;55.656;37.422;2022-10-26T06:58:27;99847.28;;;2.57
28803;BMP280;15949;55.656;37.422;2022-10-26T07:03:33;99848.13;;;2.64
28803;BMP280;15949;55.656;37.422;2022-10-26T07:08:39;99844.22;;;2.85
28803;BMP280;15949;55.656;37.422;2022-10-26T07:13:44;99844.00;;;2.97
28803;BMP280;15949;55.656;37.422;2022-10-26T07:18:50;99842.75;;;3.21
28803;BMP280;15949;55.656;37.422;2022-10-26T07:23:55;99849.34;;;3.42
28803;BMP280;15949;55.656;37.422;2022-10-26T07:29:02;99838.53;;;3.54
28803;BMP280;15949;55.656;37.422;2022-10-26T07:34:07;99845.56;;;3.84
28803;BMP280;15949;55.656;37.422;2022-10-26T07:39:13;99841.38;;;3.79
28803;BMP280;15949;55.656;37.422;2022-10-26T07:44:19;99850.50;;;3.92
28803;BMP280;15949;55.656;37.422;2022-10-26T07:49:25;99844.84;;;3.90
28803;BMP280;15949;55.656;37.422;2022-10-26T07:54:31;99832.88;;;4.03
28803;BMP280;15949;55.656;37.422;2022-10-26T07:59:37;99835.31;;;4.34
28803;BMP280;15949;55.656;37.422;2022-10-26T08:04:42;99836.59;;;4.68
28803;BMP280;15949;55.656;37.422;2022-10-26T08:09:48;99841.53;;;4.74
28803;BMP280;15949;55.656;37.422;2022-10-26T08:14:54;99847.53;;;4.78
28803;BMP280;15949;55.656;37.422;2022-10-26T08:19:59;99846.34;;;4.64
28803;BMP280;15949;55.656;37.422;2022-10-26T08:25:05;99848.09;;;4.32
28803;BMP280;15949;55.656;37.422;2022-10-26T08:30:11;99844.44;;;4.51
28803;BMP280;15949;55.656;37.422;2022-10-26T08:35:17;99842.19;;;4.49
28803;BMP280;15949;55.656;37.422;2022-10-26T08:40:27;99843.63;;;4.36
28803;BMP280;15949;55.656;37.422;2022-10-26T08:45:37;99851.22;;;4.48
28803;BMP280;15949;55.656;37.422;2022-10-26T08:50:54;99850.44;;;4.44
28803;BMP280;15949;55.656;37.422;2022-10-26T08:56:20;99852.75;;;4.56
28803;BMP280;15949;55.656;37.422;2022-10-26T09:01:30;99847.53;;;4.67
28803;BMP280;15949;55.656;37.422;2022-10-26T09:06:50;99849.06;;;4.72
28803;BMP280;15949;55.656;37.422;2022-10-26T09:12:33;99852.47;;;4.79
28803;BMP280;15949;55.656;37.422;2022-10-26T09:28:16;99855.09;;;4.72
28803;BMP280;15949;55.656;37.422;2022-10-26T09:33:23;99848.72;;;4.84
28803;BMP280;15949;55.656;37.422;2022-10-26T09:43:54;99849.13;;;5.00
28803;BMP280;15949;55.656;37.422;2022-10-26T09:49:07;99850.25;;;4.99
28803;BMP280;15949;55.656;37.422;2022-10-26T09:54:16;99857.06;;;5.04
28803;BMP280;15949;55.656;37.422;2022-10-26T09:59:23;99864.28;;;5.32
28803;BMP280;15949;55.656;37.422;2022-10-26T10:04:30;99856.72;;;5.41
28803;BMP280;15949;55.656;37.422;2022-10-26T10:09:35;99852.97;;;5.35
28803;BMP280;15949;55.656;37.422;2022-10-26T10:14:54;99853.34;;;5.30
28803;BMP280;15949;55.656;37.422;2022-10-26T10:20:07;99851.44;;;5.16
28803;BMP280;15949;55.656;37.422;2022-10-26T10:25:32;99846.16;;;5.34
28803;BMP280;15949;55.656;37.422;2022-10-26T10:30:51;99849.97;;;5.47
28803;BMP280;15949;55.656;37.422;2022-10-26T10:35:58;99837.13;;;5.39
28803;BMP280;15949;55.656;37.422;2022-10-26T10:41:04;99846.94;;;5.45
28803;BMP280;15949;55.656;37.422;2022-10-26T10:46:17;99843.91;;;5.65
28803;BMP280;15949;55.656;37.422;2022-10-26T10:51:23;99837.88;;;5.68
28803;BMP280;15949;55.656;37.422;2022-10-26T11:07:41;99849.19;;;5.65
28803;BMP280;15949;55.656;37.422;2022-10-26T11:12:55;99841.66;;;5.56
28803;BMP280;15949;55.656;37.422;2022-10-26T11:18:18;99849.19;;;5.40
28803;BMP280;15949;55.656;37.422;2022-10-26T11:23:33;99837.13;;;5.49
28803;BMP280;15949;55.656;37.422;2022-10-26T11:39:41;99836.38;;;5.60
28803;BMP280;15949;55.656;37.422;2022-10-26T11:44:54;99832.19;;;5.66
28803;BMP280;15949;55.656;37.422;2022-10-26T11:50:08;99831.06;;;5.42
28803;BMP280;15949;55.656;37.422;2022-10-26T11:55:17;99822.03;;;5.32
28803;BMP280;15949;55.656;37.422;2022-10-26T12:00:24;99824.63;;;5.28
28803;BMP280;15949;55.656;37.422;2022-10-26T12:10:39;99817.47;;;5.15
28803;BMP280;15949;55.656;37.422;2022-10-26T12:21:19;99823.88;;;5.13
28803;BMP280;15949;55.656;37.422;2022-10-26T13:08:41;99811.94;;;4.29
28803;BMP280;15949;55.656;37.422;2022-10-26T13:14:03;99805.94;;;4.35
28803;BMP280;15949;55.656;37.422;2022-10-26T13:19:22;99801.31;;;4.18
28803;BMP280;15949;55.656;37.422;2022-10-26T13:24:30;99811.06;;;4.10
28803;BMP280;15949;55.656;37.422;2022-10-26T13:35:21;99808.69;;;3.91
28803;BMP280;15949;55.656;37.422;2022-10-26T13:40:28;99815.06;;;3.83
28803;BMP280;15949;55.656;37.422;2022-10-26T13:45:58;99811.47;;;3.57
28803;BMP280;15949;55.656;37.422;2022-10-26T13:51:12;99811.47;;;3.57
28803;BMP280;15949;55.656;37.422;2022-10-26T13:56:26;99815.13;;;3.45
28803;BMP280;15949;55.656;37.422;2022-10-26T14:01:34;99819.66;;;3.45
28803;BMP280;15949;55.656;37.422;2022-10-26T14:06:39;99822.63;;;3.40
28803;BMP280;15949;55.656;37.422;2022-10-26T14:11:55;99816.47;;;3.28
28803;BMP280;15949;55.656;37.422;2022-10-26T14:17:04;99822.44;;;3.18
28803;BMP280;15949;55.656;37.422;2022-10-26T14:22:24;99813.06;;;3.24
28803;BMP280;15949;55.656;37.422;2022-10-26T14:27:36;99826.88;;;3.14
28803;BMP280;15949;55.656;37.422;2022-10-26T14:32:42;99817.88;;;3.15
28803;BMP280;15949;55.656;37.422;2022-10-26T14:37:57;99828.00;;;3.13
28803;BMP280;15949;55.656;37.422;2022-10-26T14:43:17;99823.03;;;3.04
28803;BMP280;15949;55.656;37.422;2022-10-26T14:48:30;99825.63;;;3.01
28803;BMP280;15949;55.656;37.422;2022-10-26T14:53:40;99835.03;;;3.02
28803;BMP280;15949;55.656;37.422;2022-10-26T14:58:52;99829.06;;;3.05
28803;BMP280;15949;55.656;37.422;2022-10-26T15:04:03;99826.69;;;2.96
28803;BMP280;15949;55.656;37.422;2022-10-26T15:09:45;99833.53;;;3.01
28803;BMP280;15949;55.656;37.422;2022-10-26T15:14:52;99823.41;;;3.03
28803;BMP280;15949;55.656;37.422;2022-10-26T15:20:03;99824.38;;;2.87
28803;BMP280;15949;55.656;37.422;2022-10-26T15:25:16;99821.13;;;3.01
28803;BMP280;15949;55.656;37.422;2022-10-26T15:30:26;99815.78;;;2.94
28803;BMP280;15949;55.656;37.422;2022-10-26T15:35:32;99820.66;;;2.96
28803;BMP280;15949;55.656;37.422;2022-10-26T15:40:41;99824.38;;;2.87
28803;BMP280;15949;55.656;37.422;2022-10-26T15:45:47;99832.94;;;2.84
28803;BMP280;15949;55.656;37.422;2022-10-26T15:50:54;99831.75;;;2.78
28803;BMP280;15949;55.656;37.422;2022-10-26T15:56:00;99834.00;;;2.76
28803;BMP280;15949;55.656;37.422;2022-10-26T16:01:06;99830.97;;;2.74
28803;BMP280;15949;55.656;37.422;2022-10-26T16:06:17;99830.00;;;2.56
28803;BMP280;15949;55.656;37.422;2022-10-26T16:11:24;99832.56;;;2.52
28803;BMP280;15949;55.656;37.422;2022-10-26T16:16:29;99836.66;;;2.49
28803;BMP280;15949;55.656;37.422;2022-10-26T16:21:35;99829.09;;;2.44
28803;BMP280;15949;55.656;37.422;2022-10-26T16:26:41;99821.06;;;2.34
28803;BMP280;15949;55.656;37.422;2022-10-26T16:31:47;99825.56;;;2.33
28803;BMP280;15949;55.656;37.422;2022-10-26T16:36:52;99816.81;;;2.25
28803;BMP280;15949;55.656;37.422;2022-10-26T16:41:58;99810.81;;;2.25
28803;BMP280;15949;55.656;37.422;2022-10-26T16:47:04;99822.16;;;2.29
28803;BMP280;15949;55.656;37.422;2022-10-26T16:52:10;99819.75;;;2.20
28803;BMP280;15949;55.656;37.422;2022-10-26T16:57:15;99824.91;;;2.13
28803;BMP280;15949;55.656;37.422;2022-10-26T17:02:21;99815.88;;;2.11
28803;BMP280;15949;55.656;37.422;2022-10-26T17:07:26;99811.81;;;2.17
28803;BMP280;15949;55.656;37.422;2022-10-26T17:12:32;99810.28;;;2.16
28803;BMP280;15949;55.656;37.422;2022-10-26T17:17:37;99816.56;;;2.08
28803;BMP280;15949;55.656;37.422;2022-10-26T17:22:43;99812.81;;;2.09
28803;BMP280;15949;55.656;37.422;2022-10-26T17:27:48;99809.94;;;2.14
28803;BMP280;15949;55.656;37.422;2022-10-26T17:32:54;99803.88;;;2.13
28803;BMP280;15949;55.656;37.422;2022-10-26T17:38:00;99800.53;;;2.16
28803;BMP280;15949;55.656;37.422;2022-10-26T17:43:05;99799.41;;;2.14
28803;BMP280;15949;55.656;37.422;2022-10-26T17:48:11;99803.22;;;2.20
28803;BMP280;15949;55.656;37.422;2022-10-26T17:53:16;99807.66;;;2.16
28803;BMP280;15949;55.656;37.422;2022-10-26T17:58:22;99812.22;;;2.19
28803;BMP280;15949;55.656;37.422;2022-10-26T18:03:27;99806.06;;;2.08
28803;BMP280;15949;55.656;37.422;2022-10-26T18:08:34;99795.44;;;2.00
28803;BMP280;15949;55.656;37.422;2022-10-26T18:13:40;99810.50;;;2.03
28803;BMP280;15949;55.656;37.422;2022-10-26T18:18:46;99808.06;;;1.91
28803;BMP280;15949;55.656;37.422;2022-10-26T18:23:55;99810.44;;;2.00
28803;BMP280;15949;55.656;37.422;2022-10-26T18:29:02;99803.69;;;1.99
28803;BMP280;15949;55.656;37.422;2022-10-26T18:34:09;99801.50;;;2.04
28803;BMP280;15949;55.656;37.422;2022-10-26T18:39:14;99806.75;;;2.04
28803;BMP280;15949;55.656;37.422;2022-10-26T18:44:28;99813.06;;;2.00
28803;BMP280;15949;55.656;37.422;2022-10-26T18:49:33;99806.41;;;2.06
28803;BMP280;15949;55.656;37.422;2022-10-26T18:54:39;99813.53;;;2.05
28803;BMP280;15949;55.656;37.422;2022-10-26T18:59:46;99808.31;;;2.09
28803;BMP280;15949;55.656;37.422;2022-10-26T19:04:51;99820.78;;;2.16
28803;BMP280;15949;55.656;37.422;2022-10-26T19:09:58;99821.97;;;2.18
28803;BMP280;15949;55.656;37.422;2022-10-26T19:15:04;99814.53;;;2.24
28803;BMP280;15949;55.656;37.422;2022-10-26T19:20:10;99825.06;;;2.24
28803;BMP280;15949;55.656;37.422;2022-10-26T19:25:17;99823.25;;;2.28
28803;BMP280;15949;55.656;37.422;2022-10-26T19:30:22;99815.44;;;2.35
28803;BMP280;15949;55.656;37.422;2022-10-26T19:35:29;99819.94;;;2.35
28803;BMP280;15949;55.656;37.422;2022-10-26T19:40:34;99821.63;;;2.46
28803;BMP280;15949;55.656;37.422;2022-10-26T19:45:40;99818.47;;;2.37
28803;BMP280;15949;55.656;37.422;2022-10-26T19:50:52;99813.22;;;2.37
28803;BMP280;15949;55.656;37.422;2022-10-26T19:56:00;99820.16;;;2.53
28803;BMP280;15949;55.656;37.422;2022-10-26T20:01:07;99815.72;;;2.57
28803;BMP280;15949;55.656;37.422;2022-10-26T20:06:12;99811.81;;;2.43
28803;BMP280;15949;55.656;37.422;2022-10-26T20:11:18;99803.56;;;2.45
28803;BMP280;15949;55.656;37.422;2022-10-26T20:16:24;99811.81;;;2.43
28803;BMP280;15949;55.656;37.422;2022-10-26T20:21:30;99795.28;;;2.43
28803;BMP280;15949;55.656;37.422;2022-10-26T20:26:36;99794.16;;;2.44
28803;BMP280;15949;55.656;37.422;2022-10-26T20:31:42;99796.41;;;2.42
28803;BMP280;15949;55.656;37.422;2022-10-26T20:36:47;99795.34;;;2.46
28803;BMP280;15949;55.656;37.422;2022-10-26T20:41:53;99790.00;;;2.43
28803;BMP280;15949;55.656;37.422;2022-10-26T20:46:59;99790.75;;;2.43
28803;BMP280;15949;55.656;37.422;2022-10-26T20:52:11;99791.94;;;2.49
28803;BMP280;15949;55.656;37.422;2022-10-26T20:57:21;99786.34;;;2.51
28803;BMP280;15949;55.656;37.422;2022-10-26T21:02:30;99781.06;;;2.47
28803;BMP280;15949;55.656;37.422;2022-10-26T21:07:35;99784.03;;;2.46
28803;BMP280;15949;55.656;37.422;2022-10-26T21:12:41;99780.22;;;2.40
28803;BMP280;15949;55.656;37.422;2022-10-26T21:17:47;99784.81;;;2.46
28803;BMP280;15949;55.656;37.422;2022-10-26T21:22:52;99781.78;;;2.44
28803;BMP280;15949;55.656;37.422;2022-10-26T21:27:58;99781.84;;;2.52
28803;BMP280;15949;55.656;37.422;2022-10-26T21:33:03;99783.75;;;2.55
28803;BMP280;15949;55.656;37.422;2022-10-26T21:38:09;99784.97;;;2.61
28803;BMP280;15949;55.656;37.422;2022-10-26T21:43:14;99784.97;;;2.61
28803;BMP280;15949;55.656;37.422;2022-10-26T21:48:20;99779.63;;;2.54
28803;BMP280;15949;55.656;37.422;2022-10-26T21:53:26;99784.13;;;2.53
28803;BMP280;15949;55.656;37.422;2022-10-26T21:58:32;99778.91;;;2.57
28803;BMP280;15949;55.656;37.422;2022-10-26T22:03:38;99783.69;;;2.47
28803;BMP280;15949;55.656;37.422;2022-10-26T22:08:45;99779.50;;;2.43
28803;BMP280;15949;55.656;37.422;2022-10-26T22:13:51;99779.44;;;2.39
28803;BMP280;15949;55.656;37.422;2022-10-26T22:19:02;99778.47;;;2.21
28803;BMP280;15949;55.656;37.422;2022-10-26T22:24:08;99780.28;;;2.17
28803;BMP280;15949;55.656;37.422;2022-10-26T22:29:13;99769.97;;;2.04
28803;BMP280;15949;55.656;37.422;2022-10-26T22:34:19;99767.59;;;1.96
28803;BMP280;15949;55.656;37.422;2022-10-26T22:39:25;99768.50;;;1.80
28803;BMP280;15949;55.656;37.422;2022-10-26T22:44:30;99774.81;;;1.76
28803;BMP280;15949;55.656;37.422;2022-10-26T22:49:36;99775.38;;;1.66
28803;BMP280;15949;55.656;37.422;2022-10-26T22:54:41;99773.38;;;1.55
28803;BMP280;15949;55.656;37.422;2022-10-26T22:59:47;99772.34;;;1.63
28803;BMP280;15949;55.656;37.422;2022-10-26T23:04:52;99768.56;;;1.57
28803;BMP280;15949;55.656;37.422;2022-10-26T23:09:58;99760.88;;;1.72
28803;BMP280;15949;55.656;37.422;2022-10-26T23:15:04;99759.13;;;1.83
28803;BMP280;15949;55.656;37.422;2022-10-26T23:20:10;99760.50;;;2.00
28803;BMP280;15949;55.656;37.422;2022-10-26T23:25:15;99761.00;;;2.05
28803;BMP280;15949;55.656;37.422;2022-10-26T23:30:21;99751.16;;;2.02
28803;BMP280;15949;55.656;37.422;2022-10-26T23:35:26;99757.88;;;2.00
28803;BMP280;15949;55.656;37.422;2022-10-26T23:40:32;99745.84;;;1.95
28803;BMP280;15949;55.656;37.422;2022-10-26T23:45:37;99745.56;;;2.04
28803;BMP280;15949;55.656;37.422;2022-10-26T23:50:44;99752.63;;;2.00
28803;BMP280;15949;55.656;37.422;2022-10-26T23:55:50;99752.03;;;2.10
